createdAt,value
2019-04-26T00:00:39.896Z,75.65
2019-04-26T00:01:39.884Z,77.42
2019-04-26T00:02:39.885Z,76.40
2019-04-26T00:03:39.862Z,76.50
2019-04-26T00:04:39.870Z,77.05
2019-04-26T00:05:39.855Z,77.53
2019-04-26T00:06:39.831Z,76.91
2019-04-26T00:07:39.816Z,77.87
2019-04-26T00:08:39.805Z,78.08
2019-04-26T00:09:39.792Z,78.38
2019-04-26T00:10:39.807Z,79.10
2019-04-26T00:11:39.771Z,78.79
2019-04-26T00:12:39.766Z,79.30
2019-04-26T00:13:39.767Z,79.10
2019-04-26T00:14:39.737Z,79.41
2019-04-26T00:15:39.724Z,79.30
2019-04-26T00:16:39.738Z,78.45
2019-04-26T00:17:39.708Z,77.83
2019-04-26T00:18:39.699Z,78.14
2019-04-26T00:19:39.679Z,77.94
2019-04-26T00:20:39.691Z,77.22
2019-04-26T00:21:39.662Z,77.53
2019-04-26T00:22:39.671Z,77.53
2019-04-26T00:23:39.638Z,76.09
2019-04-26T00:24:39.651Z,77.12
2019-04-26T00:25:39.611Z,76.81
2019-04-26T00:26:39.600Z,76.50
2019-04-26T00:27:39.593Z,76.26
2019-04-26T00:28:39.597Z,76.67
2019-04-26T00:29:39.577Z,75.85
2019-04-26T00:30:39.558Z,75.55
2019-04-26T00:31:39.556Z,75.96
2019-04-26T00:32:39.531Z,75.65
2019-04-26T00:33:39.530Z,75.85
2019-04-26T00:34:39.529Z,75.75
2019-04-26T00:35:47.321Z,75.55
2019-04-26T00:36:40.489Z,75.79
2019-04-26T00:37:39.479Z,76.26
2019-04-26T00:38:39.467Z,76.20
2019-04-26T00:39:39.457Z,77.32
2019-04-26T00:40:39.474Z,76.71
2019-04-26T00:41:39.430Z,76.91
2019-04-26T00:42:39.421Z,76.50
2019-04-26T00:43:39.408Z,77.01
2019-04-26T00:44:39.397Z,75.75
2019-04-26T00:45:39.389Z,76.16
2019-04-26T00:46:39.395Z,75.85
2019-04-26T00:47:39.364Z,76.06
2019-04-26T00:48:39.355Z,76.06
2019-04-26T00:49:43.739Z,76.16
2019-04-26T00:50:39.328Z,76.06
2019-04-26T00:51:39.319Z,76.26
2019-04-26T00:52:39.426Z,76.20
2019-04-26T00:53:39.300Z,77.08
2019-04-26T00:54:39.298Z,76.81
2019-04-26T00:55:39.276Z,76.81
2019-04-26T00:56:39.267Z,76.50
2019-04-26T00:57:39.251Z,76.26
2019-04-26T00:58:39.255Z,77.08
2019-04-26T00:59:39.230Z,76.57
2019-04-26T01:00:39.224Z,76.81
2019-04-26T01:01:39.207Z,76.71
2019-04-26T01:02:39.200Z,76.06
2019-04-26T01:03:39.181Z,76.20
2019-04-26T01:04:39.185Z,75.65
2019-04-26T01:05:39.157Z,76.09
2019-04-26T01:06:39.145Z,76.16
2019-04-26T01:07:39.153Z,76.67
2019-04-26T01:08:39.151Z,77.29
2019-04-26T01:09:39.112Z,76.91
2019-04-26T01:10:39.118Z,76.50
2019-04-26T01:11:39.089Z,76.06
2019-04-26T01:12:39.078Z,76.09
2019-04-26T01:13:39.068Z,76.20
2019-04-26T01:14:39.056Z,76.81
2019-04-26T01:15:39.043Z,77.01
2019-04-26T01:16:39.076Z,76.40
2019-04-26T01:17:39.035Z,76.91
2019-04-26T01:18:39.009Z,76.30
2019-04-26T01:19:39.005Z,77.01
2019-04-26T01:20:38.987Z,76.50
2019-04-26T01:21:38.984Z,77.01
2019-04-26T01:22:38.980Z,76.20
2019-04-26T01:23:38.953Z,77.12
2019-04-26T01:24:38.941Z,77.12
2019-04-26T01:25:38.930Z,77.01
2019-04-26T01:26:38.922Z,77.01
2019-04-26T01:27:38.914Z,76.81
2019-04-26T01:28:38.913Z,76.30
2019-04-26T01:29:38.889Z,77.22
2019-04-26T01:30:38.875Z,76.91
2019-04-26T01:31:38.865Z,76.91
2019-04-26T01:32:38.853Z,76.40
2019-04-26T01:33:38.841Z,76.71
2019-04-26T01:34:38.850Z,77.42
2019-04-26T01:35:38.819Z,77.12
2019-04-26T01:36:38.827Z,77.73
2019-04-26T01:37:38.807Z,77.83
2019-04-26T01:38:38.786Z,77.42
2019-04-26T01:39:38.773Z,77.42
2019-04-26T01:40:38.786Z,77.63
2019-04-26T01:41:38.755Z,77.53
2019-04-26T01:42:38.741Z,77.32
2019-04-26T01:43:38.728Z,77.22
2019-04-26T01:44:38.719Z,77.12
2019-04-26T01:45:38.705Z,77.22
2019-04-26T01:46:38.714Z,77.26
2019-04-26T01:47:38.684Z,77.32
2019-04-26T01:48:38.674Z,77.22
2019-04-26T01:49:38.662Z,76.91
2019-04-26T01:50:38.652Z,77.01
2019-04-26T01:51:38.650Z,77.53
2019-04-26T01:52:38.649Z,77.22
2019-04-26T01:53:38.619Z,77.83
2019-04-26T01:54:38.613Z,78.14
2019-04-26T01:55:38.600Z,77.73
2019-04-26T01:56:38.590Z,78.34
2019-04-26T01:57:38.573Z,78.24
2019-04-26T01:58:38.580Z,78.34
2019-04-26T01:59:38.576Z,77.83
2019-04-26T02:00:38.543Z,78.17
2019-04-26T02:01:38.549Z,78.14
2019-04-26T02:02:38.517Z,77.73
2019-04-26T02:03:38.514Z,78.34
2019-04-26T02:04:38.517Z,77.73
2019-04-26T02:05:38.490Z,78.55
2019-04-26T02:06:38.471Z,78.24
2019-04-26T02:07:38.461Z,77.83
2019-04-26T02:08:38.451Z,77.73
2019-04-26T02:09:38.436Z,77.63
2019-04-26T02:10:38.441Z,77.87
2019-04-26T02:11:38.417Z,78.04
2019-04-26T02:12:38.405Z,77.73
2019-04-26T02:13:38.393Z,78.55
2019-04-26T02:14:38.380Z,78.04
2019-04-26T02:15:38.372Z,78.86
2019-04-26T02:16:38.389Z,78.55
2019-04-26T02:17:38.355Z,78.75
2019-04-26T02:18:38.355Z,79.10
2019-04-26T02:19:38.332Z,79.16
2019-04-26T02:20:38.312Z,78.38
2019-04-26T02:21:38.302Z,78.04
2019-04-26T02:22:38.311Z,77.42
2019-04-26T02:23:38.277Z,77.46
2019-04-26T02:24:38.267Z,76.91
2019-04-26T02:25:38.260Z,77.63
2019-04-26T02:26:38.246Z,77.63
2019-04-26T02:27:38.247Z,77.83
2019-04-26T02:28:38.241Z,77.73
2019-04-26T02:29:38.222Z,77.97
2019-04-26T02:30:38.207Z,77.15
2019-04-26T02:31:38.190Z,77.97
2019-04-26T02:32:38.180Z,77.87
2019-04-26T02:33:38.173Z,77.87
2019-04-26T02:34:38.537Z,78.28
2019-04-26T02:35:38.145Z,79.41
2019-04-26T02:36:56.139Z,79.30
2019-04-26T02:37:39.121Z,79.20
2019-04-26T02:38:38.141Z,79.50
2019-04-26T02:39:38.113Z,79.34
2019-04-26T02:40:38.105Z,79.10
2019-04-26T02:41:38.075Z,79.10
2019-04-26T02:42:38.189Z,79.30
2019-04-26T02:43:38.057Z,79.41
2019-04-26T02:44:38.430Z,79.20
2019-04-26T02:45:38.215Z,79.41
2019-04-26T02:46:38.128Z,79.50
2019-04-26T02:47:39.085Z,79.64
2019-04-26T02:48:38.043Z,78.49
2019-04-26T02:49:38.580Z,77.87
2019-04-26T02:50:38.390Z,78.21
2019-04-26T02:51:38.285Z,77.36
2019-04-26T02:52:39.174Z,77.87
2019-04-26T02:53:38.903Z,77.87
2019-04-26T02:54:38.389Z,77.15
2019-04-26T02:55:42.290Z,77.56
2019-04-26T02:56:40.018Z,77.05
2019-04-26T02:57:38.904Z,77.46
2019-04-26T02:58:39.145Z,77.19
2019-04-26T02:59:40.119Z,77.80
2019-04-26T03:00:39.157Z,77.76
2019-04-26T03:01:38.719Z,77.80
2019-04-26T03:02:40.208Z,77.76
2019-04-26T03:03:39.607Z,78.01
2019-04-26T03:04:39.343Z,77.19
2019-04-26T03:05:39.741Z,78.31
2019-04-26T03:06:39.136Z,77.50
2019-04-26T03:07:39.151Z,78.31
2019-04-26T03:08:39.345Z,78.42
2019-04-26T03:09:38.907Z,79.24
2019-04-26T03:10:38.638Z,79.34
2019-04-26T03:11:39.147Z,79.24
2019-04-26T03:12:39.482Z,80.16
2019-04-26T03:13:38.638Z,82.21
2019-04-26T03:14:38.513Z,81.70
2019-04-26T03:15:38.835Z,81.70
2019-04-26T03:16:39.447Z,83.17
2019-04-26T03:17:39.633Z,83.27
2019-04-26T03:18:39.484Z,82.35
2019-04-26T03:19:39.421Z,83.06
2019-04-26T03:20:38.345Z,84.39
2019-04-26T03:21:38.138Z,84.33
2019-04-26T03:22:39.415Z,84.09
2019-04-26T03:23:53.260Z,84.74
2019-04-26T03:24:39.314Z,85.25
2019-04-26T03:25:38.844Z,85.66
2019-04-26T03:26:39.510Z,86.34
2019-04-26T03:27:38.961Z,86.38
2019-04-26T03:28:39.407Z,86.07
2019-04-26T03:29:38.985Z,86.69
2019-04-26T03:30:42.306Z,85.77
2019-04-26T03:31:48.621Z,86.18
2019-04-26T03:32:47.873Z,86.79
2019-04-26T03:33:48.413Z,86.65
2019-04-26T03:34:45.516Z,86.69
2019-04-26T03:35:48.690Z,86.79
2019-04-26T03:36:40.737Z,87.51
2019-04-26T03:37:38.311Z,87.92
2019-04-26T03:38:38.248Z,86.58
2019-04-26T03:39:40.303Z,86.99
2019-04-26T03:40:38.941Z,86.79
2019-04-26T03:41:38.974Z,87.10
2019-04-26T03:42:38.791Z,86.90
2019-04-26T03:43:39.086Z,86.90
2019-04-26T03:44:38.984Z,87.10
2019-04-26T03:45:39.083Z,86.69
2019-04-26T03:46:39.032Z,87.82
2019-04-26T03:47:39.763Z,87.30
2019-04-26T03:48:39.279Z,87.30
2019-04-26T03:49:37.967Z,87.10
2019-04-26T03:50:38.831Z,88.23
2019-04-26T03:51:39.123Z,88.12
2019-04-26T03:52:39.507Z,88.23
2019-04-26T03:53:38.310Z,86.83
2019-04-26T03:54:39.214Z,87.76
2019-04-26T03:55:38.297Z,86.83
2019-04-26T03:56:38.599Z,87.96
2019-04-26T03:57:38.933Z,87.96
2019-04-26T03:58:38.547Z,88.06
2019-04-26T03:59:38.849Z,87.76
2019-04-26T04:00:38.785Z,88.27
2019-04-26T04:01:38.792Z,88.98
2019-04-26T04:02:38.866Z,90.07
2019-04-26T04:03:38.253Z,89.70
2019-04-26T04:04:38.882Z,90.42
2019-04-26T04:05:37.876Z,89.81
2019-04-26T04:06:56.592Z,89.09
2019-04-26T04:07:44.587Z,88.78
2019-04-26T04:08:39.897Z,88.47
2019-04-26T04:09:38.069Z,89.09
2019-04-26T04:10:39.319Z,89.09
2019-04-26T04:11:38.539Z,89.19
2019-04-26T04:12:38.461Z,89.70
2019-04-26T04:13:38.869Z,90.22
2019-04-26T04:14:38.290Z,90.22
2019-04-26T04:15:38.593Z,89.81
2019-04-26T04:16:38.683Z,90.01
2019-04-26T04:17:38.787Z,90.52
2019-04-26T04:18:38.838Z,90.52
2019-04-26T04:19:38.532Z,90.73
2019-04-26T04:20:38.329Z,91.24
2019-04-26T04:21:38.651Z,91.14
2019-04-26T04:22:39.077Z,91.24
2019-04-26T04:23:37.543Z,91.14
2019-04-26T04:24:39.127Z,90.97
2019-04-26T04:25:39.269Z,91.28
2019-04-26T04:26:39.092Z,92.21
2019-04-26T04:27:38.245Z,92.21
2019-04-26T04:28:39.832Z,91.35
2019-04-26T04:29:42.789Z,92.00
2019-04-26T04:30:40.017Z,92.31
2019-04-26T04:31:38.358Z,92.31
2019-04-26T04:32:36.849Z,92.82
2019-04-26T04:33:36.814Z,93.33
2019-04-26T04:34:36.797Z,92.82
2019-04-26T04:35:36.793Z,92.61
2019-04-26T04:36:36.775Z,93.23
2019-04-26T04:37:52.572Z,93.90
2019-04-26T04:38:37.766Z,93.74
2019-04-26T04:39:36.749Z,94.21
2019-04-26T04:40:36.739Z,94.26
2019-04-26T04:41:36.718Z,93.74
2019-04-26T04:42:36.741Z,93.95
2019-04-26T04:43:36.711Z,94.05
2019-04-26T04:44:36.702Z,94.26
2019-04-26T04:45:36.691Z,94.05
2019-04-26T04:46:36.667Z,94.15
2019-04-26T04:47:36.671Z,94.36
2019-04-26T04:48:36.644Z,94.56
2019-04-26T04:49:36.633Z,95.28
2019-04-26T04:50:36.632Z,95.07
2019-04-26T04:51:36.609Z,94.87
2019-04-26T04:52:36.598Z,95.07
2019-04-26T04:53:36.596Z,95.28
2019-04-26T04:54:36.590Z,94.81
2019-04-26T04:55:36.560Z,95.12
2019-04-26T04:56:36.575Z,95.07
2019-04-26T04:57:36.538Z,95.23
2019-04-26T04:58:36.524Z,95.12
2019-04-26T04:59:36.512Z,95.28
2019-04-26T05:00:36.505Z,94.40
2019-04-26T05:01:36.495Z,93.99
2019-04-26T05:02:36.544Z,93.99
2019-04-26T05:03:36.465Z,94.30
2019-04-26T05:04:36.453Z,94.51
2019-04-26T05:05:36.442Z,94.81
2019-04-26T05:06:36.439Z,94.40
2019-04-26T05:07:36.419Z,95.02
2019-04-26T05:08:36.430Z,95.02
2019-04-26T05:09:36.397Z,94.40
2019-04-26T05:10:36.395Z,95.32
2019-04-26T05:11:36.374Z,95.74
2019-04-26T05:12:36.376Z,95.43
2019-04-26T05:13:36.350Z,95.64
2019-04-26T05:14:36.363Z,95.53
2019-04-26T05:15:36.333Z,95.12
2019-04-26T05:16:36.328Z,94.96
2019-04-26T05:17:36.315Z,95.02
2019-04-26T05:18:36.297Z,95.47
2019-04-26T05:19:36.281Z,94.92
2019-04-26T05:20:36.313Z,95.17
2019-04-26T05:21:36.267Z,95.06
2019-04-26T05:22:36.247Z,94.96
2019-04-26T05:23:36.238Z,95.78
2019-04-26T05:24:36.239Z,95.12
2019-04-26T05:25:36.212Z,95.64
2019-04-26T05:26:36.228Z,95.37
2019-04-26T05:27:36.197Z,95.64
2019-04-26T05:28:36.179Z,95.68
2019-04-26T05:29:36.191Z,96.04
2019-04-26T05:30:36.167Z,96.15
2019-04-26T05:31:36.144Z,96.15
2019-04-26T05:32:36.151Z,96.25
2019-04-26T05:33:36.120Z,96.62
2019-04-26T05:34:36.110Z,96.25
2019-04-26T05:35:36.099Z,96.51
2019-04-26T05:36:36.096Z,96.51
2019-04-26T05:37:37.259Z,96.20
2019-04-26T05:38:36.080Z,96.51
2019-04-26T05:39:36.055Z,96.31
2019-04-26T05:40:36.050Z,96.20
2019-04-26T05:41:36.032Z,96.41
2019-04-26T05:42:36.021Z,96.31
2019-04-26T05:43:36.012Z,95.90
2019-04-26T05:44:36.019Z,96.31
2019-04-26T05:45:35.988Z,95.95
2019-04-26T05:46:35.996Z,96.00
2019-04-26T05:47:35.963Z,96.10
2019-04-26T05:48:35.950Z,96.10
2019-04-26T05:49:35.945Z,96.37
2019-04-26T05:50:35.951Z,96.16
2019-04-26T05:51:35.921Z,96.16
2019-04-26T05:52:35.907Z,96.06
2019-04-26T05:53:35.941Z,95.95
2019-04-26T05:54:35.884Z,95.95
2019-04-26T05:55:35.874Z,96.16
2019-04-26T05:56:35.916Z,96.26
2019-04-26T05:57:35.850Z,95.91
2019-04-26T05:58:35.839Z,96.16
2019-04-26T05:59:35.853Z,96.22
2019-04-26T06:00:35.830Z,96.22
2019-04-26T06:01:35.800Z,95.81
2019-04-26T06:02:35.812Z,96.22
2019-04-26T06:03:35.796Z,96.12
2019-04-26T06:04:35.773Z,96.16
2019-04-26T06:05:35.755Z,96.06
2019-04-26T06:06:35.750Z,96.16
2019-04-26T06:07:35.741Z,95.34
2019-04-26T06:08:35.758Z,95.03
2019-04-26T06:09:35.716Z,95.44
2019-04-26T06:10:35.738Z,95.49
2019-04-26T06:11:35.689Z,95.49
2019-04-26T06:12:35.678Z,95.28
2019-04-26T06:13:35.671Z,95.69
2019-04-26T06:14:35.674Z,96.20
2019-04-26T06:15:35.648Z,95.79
2019-04-26T06:16:35.630Z,95.39
2019-04-26T06:17:35.624Z,95.49
2019-04-26T06:18:35.621Z,96.31
2019-04-26T06:19:35.604Z,96.00
2019-04-26T06:20:35.634Z,96.20
2019-04-26T06:21:35.574Z,95.90
2019-04-26T06:22:35.567Z,96.10
2019-04-26T06:23:35.552Z,96.41
2019-04-26T06:24:35.547Z,96.47
2019-04-26T06:25:35.528Z,96.41
2019-04-26T06:26:35.542Z,96.16
2019-04-26T06:27:35.506Z,96.47
2019-04-26T06:28:35.515Z,96.16
2019-04-26T06:29:35.486Z,96.78
2019-04-26T06:30:45.328Z,97.29
2019-04-26T06:31:36.484Z,96.98
2019-04-26T06:32:35.542Z,96.88
2019-04-26T06:33:35.451Z,97.08
2019-04-26T06:34:35.431Z,96.83
2019-04-26T06:35:35.425Z,96.98
2019-04-26T06:36:35.416Z,97.29
2019-04-26T06:37:35.420Z,97.19
2019-04-26T06:38:43.656Z,96.57
2019-04-26T06:39:36.372Z,97.08
2019-04-26T06:40:41.878Z,96.78
2019-04-26T06:41:36.345Z,96.67
2019-04-26T06:42:35.378Z,96.98
2019-04-26T06:43:35.340Z,97.08
2019-04-26T06:44:35.312Z,97.08
2019-04-26T06:45:35.301Z,96.98
2019-04-26T06:46:35.290Z,97.08
2019-04-26T06:47:35.286Z,96.47
2019-04-26T06:48:35.265Z,97.08
2019-04-26T06:49:35.270Z,96.88
2019-04-26T06:50:35.251Z,96.78
2019-04-26T06:51:35.243Z,96.88
2019-04-26T06:52:35.225Z,97.19
2019-04-26T06:53:35.212Z,97.19
2019-04-26T06:54:35.211Z,97.29
2019-04-26T06:55:35.228Z,97.19
2019-04-26T06:56:35.181Z,97.08
2019-04-26T06:57:35.175Z,96.78
2019-04-26T06:58:35.155Z,96.88
2019-04-26T06:59:36.591Z,96.37
2019-04-26T07:00:35.133Z,96.37
2019-04-26T07:01:35.134Z,96.47
2019-04-26T07:02:35.116Z,96.16
2019-04-26T07:03:35.097Z,96.37
2019-04-26T07:04:35.083Z,95.34
2019-04-26T07:05:35.072Z,96.06
2019-04-26T07:06:35.493Z,95.95
2019-04-26T07:07:35.077Z,95.95
2019-04-26T07:08:35.038Z,96.37
2019-04-26T07:09:35.024Z,96.42
2019-04-26T07:10:35.028Z,96.32
2019-04-26T07:11:35.015Z,96.32
2019-04-26T07:12:34.992Z,96.01
2019-04-26T07:13:34.997Z,95.81
2019-04-26T07:14:34.969Z,96.42
2019-04-26T07:15:34.963Z,95.81
2019-04-26T07:16:34.954Z,96.22
2019-04-26T07:17:34.937Z,96.12
2019-04-26T07:18:34.924Z,96.01
2019-04-26T07:19:34.941Z,95.97
2019-04-26T07:20:34.903Z,95.66
2019-04-26T07:21:34.915Z,95.25
2019-04-26T07:22:35.815Z,95.97
2019-04-26T07:23:34.866Z,95.46
2019-04-26T07:24:34.859Z,95.36
2019-04-26T07:25:34.864Z,95.76
2019-04-26T07:26:34.839Z,95.31
2019-04-26T07:27:34.820Z,95.10
2019-04-26T07:28:34.811Z,94.49
2019-04-26T07:29:34.805Z,93.98
2019-04-26T07:30:34.788Z,94.49
2019-04-26T07:31:34.795Z,93.77
2019-04-26T07:32:34.765Z,93.57
2019-04-26T07:33:34.755Z,93.57
2019-04-26T07:34:34.748Z,93.52
2019-04-26T07:35:34.739Z,94.14
2019-04-26T07:36:34.726Z,93.73
2019-04-26T07:37:34.725Z,93.12
2019-04-26T07:38:34.696Z,93.01
2019-04-26T07:39:34.696Z,92.66
2019-04-26T07:40:34.680Z,92.60
2019-04-26T07:41:34.666Z,92.60
2019-04-26T07:42:34.652Z,92.71
2019-04-26T07:43:34.661Z,92.97
2019-04-26T07:44:34.653Z,92.71
2019-04-26T07:45:34.622Z,92.50
2019-04-26T07:46:34.624Z,92.30
2019-04-26T07:47:34.597Z,92.25
2019-04-26T07:48:34.589Z,92.36
2019-04-26T07:49:34.604Z,92.36
2019-04-26T07:50:34.563Z,91.44
2019-04-26T07:51:34.555Z,92.25
2019-04-26T07:52:34.540Z,92.15
2019-04-26T07:53:34.528Z,91.60
2019-04-26T07:54:34.547Z,90.78
2019-04-26T07:55:34.530Z,90.17
2019-04-26T07:56:34.495Z,90.23
2019-04-26T07:57:34.480Z,90.53
2019-04-26T07:58:34.471Z,90.12
2019-04-26T07:59:34.465Z,90.33
2019-04-26T08:00:44.369Z,89.04
2019-04-26T08:01:35.459Z,89.72
2019-04-26T08:02:34.421Z,88.84
2019-04-26T08:03:34.410Z,89.00
2019-04-26T08:04:34.399Z,89.45
2019-04-26T08:05:34.389Z,89.82
2019-04-26T08:06:34.372Z,89.00
2019-04-26T08:07:34.388Z,87.92
2019-04-26T08:08:34.349Z,88.70
2019-04-26T08:09:34.340Z,88.94
2019-04-26T08:10:34.323Z,87.92
2019-04-26T08:11:34.310Z,88.64
2019-04-26T08:12:34.301Z,88.53
2019-04-26T08:13:34.314Z,88.59
2019-04-26T08:14:34.291Z,89.11
2019-04-26T08:15:34.267Z,88.85
2019-04-26T08:16:34.252Z,88.79
2019-04-26T08:17:34.238Z,88.45
2019-04-26T08:18:34.227Z,88.24
2019-04-26T08:19:34.303Z,88.04
2019-04-26T08:20:34.211Z,88.04
2019-04-26T08:21:34.191Z,88.71
2019-04-26T08:22:34.179Z,87.49
2019-04-26T08:23:42.113Z,87.59
2019-04-26T08:24:35.189Z,86.41
2019-04-26T08:25:34.144Z,86.57
2019-04-26T08:26:34.131Z,87.18
2019-04-26T08:27:34.121Z,87.02
2019-04-26T08:28:34.108Z,87.63
2019-04-26T08:29:34.630Z,86.71
2019-04-26T08:30:34.103Z,87.53
2019-04-26T08:31:34.072Z,86.61
2019-04-26T08:32:34.060Z,87.02
2019-04-26T08:33:34.047Z,86.91
2019-04-26T08:34:34.039Z,86.44
2019-04-26T08:35:34.029Z,87.26
2019-04-26T08:36:34.047Z,87.77
2019-04-26T08:37:36.499Z,86.14
2019-04-26T08:38:33.989Z,86.96
2019-04-26T08:39:44.830Z,87.06
2019-04-26T08:40:34.964Z,87.67
2019-04-26T08:41:35.165Z,87.67
2019-04-26T08:42:33.953Z,87.47
2019-04-26T08:43:33.927Z,86.04
2019-04-26T08:44:34.704Z,87.47
2019-04-26T08:45:33.902Z,87.88
2019-04-26T08:46:36.257Z,87.98
2019-04-26T08:47:33.881Z,87.47
2019-04-26T08:48:33.886Z,86.85
2019-04-26T08:49:35.103Z,87.02
2019-04-26T08:50:33.843Z,86.55
2019-04-26T08:51:33.829Z,86.61
2019-04-26T08:52:33.841Z,86.61
2019-04-26T08:53:33.809Z,86.30
2019-04-26T08:54:33.820Z,86.20
2019-04-26T08:55:33.782Z,86.06
2019-04-26T08:56:33.771Z,84.98
2019-04-26T08:57:33.757Z,86.00
2019-04-26T08:58:33.761Z,86.16
2019-04-26T08:59:33.739Z,84.67
2019-04-26T09:00:33.737Z,85.35
2019-04-26T09:01:33.708Z,85.96
2019-04-26T09:02:33.696Z,85.55
2019-04-26T09:03:33.686Z,85.82
2019-04-26T09:04:33.674Z,84.90
2019-04-26T09:05:33.664Z,82.24
2019-04-26T09:06:33.668Z,82.71
2019-04-26T09:07:36.237Z,83.53
2019-04-26T09:08:33.637Z,83.23
2019-04-26T09:09:33.616Z,83.43
2019-04-26T09:10:33.605Z,83.43
2019-04-26T09:11:34.061Z,82.21
2019-04-26T09:12:33.606Z,82.51
2019-04-26T09:13:33.572Z,82.41
2019-04-26T09:14:33.560Z,81.90
2019-04-26T09:15:33.544Z,83.09
2019-04-26T09:16:33.536Z,83.18
2019-04-26T09:17:33.795Z,82.98
2019-04-26T09:18:43.158Z,82.68
2019-04-26T09:19:34.514Z,82.82
2019-04-26T09:20:33.489Z,82.31
2019-04-26T09:21:33.475Z,81.70
2019-04-26T09:22:33.467Z,81.29
2019-04-26T09:23:39.809Z,81.18
2019-04-26T09:24:34.461Z,82.00
2019-04-26T09:25:34.437Z,80.98
2019-04-26T09:26:33.463Z,80.37
2019-04-26T09:27:33.406Z,79.86
2019-04-26T09:28:33.397Z,79.25
2019-04-26T09:29:33.381Z,80.23
2019-04-26T09:30:34.603Z,79.00
2019-04-26T09:31:33.366Z,79.07
2019-04-26T09:32:33.346Z,79.68
2019-04-26T09:33:36.014Z,77.44
2019-04-26T09:34:33.354Z,77.55
2019-04-26T09:35:33.310Z,76.73
2019-04-26T09:36:33.319Z,76.22
2019-04-26T09:37:33.309Z,79.17
2019-04-26T09:38:33.277Z,77.37
2019-04-26T09:39:33.266Z,76.01
2019-04-26T09:40:33.257Z,77.37
2019-04-26T09:41:33.265Z,76.76
2019-04-26T09:42:33.250Z,76.87
2019-04-26T09:43:33.220Z,76.76
2019-04-26T09:44:33.210Z,76.97
2019-04-26T09:45:33.195Z,76.87
2019-04-26T09:46:33.190Z,78.19
2019-04-26T09:47:33.173Z,78.30
2019-04-26T09:48:33.180Z,75.60
2019-04-26T09:49:33.149Z,78.30
2019-04-26T09:50:33.139Z,76.87
2019-04-26T09:51:34.800Z,75.23
2019-04-26T09:52:34.115Z,76.66
2019-04-26T09:53:33.107Z,75.13
2019-04-26T09:54:33.136Z,76.73
2019-04-26T09:55:35.585Z,76.76
2019-04-26T09:56:33.074Z,78.09
2019-04-26T09:57:33.065Z,77.17
2019-04-26T10:00:24.636Z,77.07
2019-04-26T10:01:25.987Z,77.58
2019-04-26T10:02:24.590Z,76.66
2019-04-26T10:03:24.578Z,76.97
2019-04-26T10:04:24.573Z,75.85
2019-04-26T10:05:24.554Z,75.64
2019-04-26T10:06:26.160Z,75.44
2019-04-26T10:07:24.537Z,76.66
2019-04-26T10:08:24.520Z,76.59
2019-04-26T10:09:24.509Z,76.97
2019-04-26T10:10:24.504Z,75.44
2019-04-26T10:11:24.492Z,75.44
2019-04-26T10:12:24.497Z,75.44
2019-04-26T10:13:24.465Z,75.85
2019-04-26T10:14:24.453Z,75.64
2019-04-26T10:15:26.784Z,76.76
2019-04-26T10:16:24.433Z,75.13
2019-04-26T10:17:24.434Z,74.73
2019-04-26T10:18:25.914Z,74.93
2019-04-26T10:19:24.398Z,75.74
2019-04-26T10:20:24.388Z,75.95
2019-04-26T10:21:24.374Z,77.44
2019-04-26T10:22:24.365Z,76.83
2019-04-26T10:23:24.354Z,76.93
2019-04-26T10:24:24.364Z,77.51
2019-04-26T10:25:24.330Z,74.45
2019-04-26T10:26:28.139Z,75.95
2019-04-26T10:27:25.311Z,75.98
2019-04-26T10:28:24.297Z,74.82
2019-04-26T10:29:25.765Z,73.10
2019-04-26T10:30:24.293Z,74.69
2019-04-26T10:31:24.265Z,75.16
2019-04-26T10:32:26.430Z,73.84
2019-04-26T10:33:24.237Z,73.63
2019-04-26T10:34:24.230Z,72.89
2019-04-26T10:35:24.224Z,72.17
2019-04-26T10:36:26.267Z,71.26
2019-04-26T10:37:25.192Z,71.09
2019-04-26T10:38:25.488Z,69.74
2019-04-26T10:39:24.170Z,68.42
2019-04-26T10:40:35.103Z,68.29
2019-04-26T10:41:25.164Z,68.46
2019-04-26T10:42:24.136Z,67.92
2019-04-26T10:43:24.125Z,66.19
2019-04-26T10:44:24.114Z,66.67
2019-04-26T10:45:24.112Z,66.97
2019-04-26T10:46:24.484Z,66.16
2019-04-26T10:47:24.099Z,65.09
2019-04-26T10:48:24.089Z,64.79
2019-04-26T10:49:24.659Z,64.45
2019-04-26T10:50:24.058Z,64.29
2019-04-26T10:51:24.163Z,63.58
2019-04-26T10:52:24.023Z,63.08
2019-04-26T10:53:25.685Z,62.70
2019-04-26T10:54:25.002Z,64.73
2019-04-26T10:55:23.995Z,63.24
2019-04-26T10:56:24.369Z,63.75
2019-04-26T10:57:23.971Z,63.54
2019-04-26T10:58:23.963Z,61.01
2019-04-26T10:59:23.961Z,62.29
2019-04-26T11:00:23.937Z,66.06
2019-04-26T11:01:23.921Z,63.63
2019-04-26T11:02:23.912Z,64.85
2019-04-26T11:03:23.905Z,65.96
2019-04-26T11:04:25.865Z,64.98
2019-04-26T11:05:23.901Z,66.30
2019-04-26T11:06:24.115Z,65.62
2019-04-26T11:07:23.858Z,65.99
2019-04-26T11:08:23.843Z,65.95
2019-04-26T11:09:23.833Z,66.36
2019-04-26T11:10:24.446Z,66.63
2019-04-26T11:11:23.820Z,65.65
2019-04-26T11:12:23.796Z,66.33
2019-04-26T11:13:23.790Z,67.47
2019-04-26T11:14:24.247Z,68.79
2019-04-26T11:15:23.771Z,65.78
2019-04-26T11:16:23.756Z,66.02
2019-04-26T11:17:23.764Z,67.44
2019-04-26T11:18:27.700Z,66.63
2019-04-26T11:19:23.724Z,68.96
2019-04-26T11:20:23.708Z,68.99
2019-04-26T11:21:23.695Z,67.74
2019-04-26T11:22:29.385Z,68.99
2019-04-26T11:23:24.691Z,68.25
2019-04-26T11:24:23.665Z,69.50
2019-04-26T11:25:24.613Z,67.57
2019-04-26T11:26:23.641Z,66.76
2019-04-26T11:27:23.629Z,68.79
2019-04-26T11:28:23.622Z,67.67
2019-04-26T11:29:24.971Z,68.08
2019-04-26T11:30:23.599Z,67.97
2019-04-26T11:31:27.770Z,67.13
2019-04-26T11:32:24.572Z,68.15
2019-04-26T11:33:23.563Z,66.66
2019-04-26T11:34:25.039Z,66.05
2019-04-26T11:35:23.570Z,67.88
2019-04-26T11:36:23.533Z,66.76
2019-04-26T11:37:23.526Z,68.18
2019-04-26T11:38:26.953Z,66.12
2019-04-26T11:39:24.514Z,66.12
2019-04-26T11:40:23.486Z,67.33
2019-04-26T11:41:23.518Z,66.29
2019-04-26T11:42:23.472Z,66.29
2019-04-26T11:43:23.457Z,65.68
2019-04-26T11:44:27.408Z,65.68
2019-04-26T11:45:23.430Z,64.97
2019-04-26T11:46:29.099Z,65.65
2019-04-26T11:47:24.428Z,65.59
2019-04-26T11:48:25.575Z,65.59
2019-04-26T11:49:24.395Z,66.30
2019-04-26T11:50:23.375Z,65.76
2019-04-26T11:51:27.145Z,64.34
2019-04-26T11:52:23.359Z,64.92
2019-04-26T11:53:23.364Z,64.82
2019-04-26T11:54:23.331Z,64.41
2019-04-26T11:55:25.434Z,63.30
2019-04-26T11:56:24.312Z,60.77
2019-04-26T11:57:23.301Z,61.17
2019-04-26T11:58:23.781Z,62.18
2019-04-26T11:59:23.398Z,61.80
2019-04-26T12:00:23.263Z,61.51
2019-04-26T12:01:23.256Z,63.20
2019-04-26T12:02:23.242Z,61.27
2019-04-26T12:03:24.823Z,64.21
2019-04-26T12:04:23.217Z,63.20
2019-04-26T12:05:23.225Z,63.70
2019-04-26T12:06:23.194Z,63.60
2019-04-26T12:07:23.215Z,63.09
2019-04-26T12:08:23.175Z,62.18
2019-04-26T12:09:23.224Z,60.86
2019-04-26T12:10:23.150Z,61.47
2019-04-26T12:11:30.358Z,61.68
2019-04-26T12:12:24.123Z,63.60
2019-04-26T12:13:25.104Z,62.29
2019-04-26T12:14:23.106Z,62.96
2019-04-26T12:15:30.070Z,60.74
2019-04-26T12:16:24.104Z,62.26
2019-04-26T12:17:23.078Z,61.65
2019-04-26T12:18:23.125Z,62.56
2019-04-26T12:19:23.046Z,58.81
2019-04-26T12:20:26.780Z,59.14
2019-04-26T12:21:24.030Z,59.95
2019-04-26T12:22:23.035Z,61.17
2019-04-26T12:23:23.000Z,59.05
2019-04-26T12:24:25.301Z,61.88
2019-04-26T12:25:23.976Z,60.77
2019-04-26T12:26:23.118Z,60.57
2019-04-26T12:27:26.466Z,59.55
2019-04-26T12:28:23.957Z,59.17
2019-04-26T12:29:22.932Z,59.07
2019-04-26T12:30:26.392Z,60.08
2019-04-26T12:31:22.912Z,57.35
2019-04-26T12:32:22.897Z,59.17
2019-04-26T12:33:22.885Z,59.17
2019-04-26T12:34:22.904Z,58.74
2019-04-26T12:35:22.865Z,58.84
2019-04-26T12:36:22.853Z,59.68
2019-04-26T12:37:22.840Z,60.69
2019-04-26T12:38:24.168Z,60.39
2019-04-26T12:39:23.839Z,61.27
2019-04-26T12:40:22.806Z,62.66
2019-04-26T12:41:39.559Z,61.14
2019-04-26T12:42:23.781Z,60.63
2019-04-26T12:43:24.588Z,61.72
2019-04-26T12:44:22.763Z,58.78
2019-04-26T12:45:22.768Z,58.69
2019-04-26T12:46:26.955Z,60.74
2019-04-26T12:47:23.725Z,58.41
2019-04-26T12:48:22.719Z,58.64
2019-04-26T12:49:24.253Z,61.37
2019-04-26T12:50:22.699Z,59.01
2019-04-26T12:51:22.700Z,59.39
2019-04-26T12:52:22.843Z,59.49
2019-04-26T12:53:26.684Z,59.06
2019-04-26T12:54:23.665Z,60.14